Flight Track Log - Related Links

Times and Time Zones

All times are in EDT time to prevent confusion due to time zone crossing. See the N1253W flight status page for this flight to view local times or setup timezone preferences in your user account.

Time Position Orientation Groundspeed Altitude Reporting Facility
EDT Latitude Longitude Course Direction KTS MPH feet Rate Location/Type
Fri 14:12:54 41.5125 -81.6950 329° Northwest 124 143 1,200  Level Cleveland Center
Fri 14:14:01 41.5519 -81.7264 329° Northwest 189 217 2,100 1,134 Climbing Cleveland Center
Fri 14:15:01 41.5681 -81.7681 297° West 136 157 3,600 1,785 Climbing Cleveland Center
Fri 14:16:02 41.5325 -81.8008 215° Southwest 147 169 5,700 1,969 Climbing Cleveland Center
Fri 14:17:09 41.4989 -81.8169 200° South 134 154 7,800 1,843 Climbing Cleveland Center
Fri 14:18:09 41.4675 -81.8328 201° Southwest 129 148 9,600 1,550 Climbing Cleveland Center
Fri 14:19:09 41.4319 -81.8489 199° South 127 146 10,900 750 Climbing Cleveland Center
Fri 14:20:09 41.3878 -81.8644 195° South 198 228 11,100 100 Climbing Cleveland Center
Fri 14:21:09 41.3356 -81.8800 193° South 196 226 11,100  Level Cleveland Center
Fri 14:22:09 41.2833 -81.9011 197° South 196 226 11,100  Level Cleveland Center
Fri 14:23:09 41.2308 -81.9222 197° South 204 235 11,100 -200 Level Cleveland Center
Fri 14:24:09 41.1764 -81.9403 194° South 209 241 10,700 -750 Descending Cleveland Center
Fri 14:25:09 41.1178 -81.9611 195° South 209 241 9,600 -1,050 Descending Cleveland Center
Fri 14:26:09 41.0614 -81.9819 196° South 209 241 8,600 -850 Descending Cleveland Center
Fri 14:27:09 40.9964 -82.0056 195° South 214 246 7,900 -350 Descending Cleveland Center
Fri 14:28:09 40.9378 -82.0261 195° South 214 246 7,900  Level Cleveland Center
Fri 14:29:11 40.8853 -82.0581 205° Southwest 219 252 7,900  Level Cleveland Center
Fri 14:30:09 40.8325 -82.0953 208° Southwest 213 245 7,900  Level Cleveland Center
Fri 14:31:09 40.7842 -82.1325 210° Southwest 213 245 7,900  Level Cleveland Center
Fri 14:32:09 40.7317 -82.1669 206° Southwest 213 245 7,900  Level Cleveland Center
Fri 14:33:09 40.6789 -82.2039 208° Southwest 213 245 7,900  Level Cleveland Center
Fri 14:34:09 40.6283 -82.2436 211° Southwest 213 245 7,900 63 Level Cleveland Center
Fri 14:34:45 40.6028 -82.2608 207° Southwest 211 243 8,000 61 Climbing Indianapolis Center
Fri 14:35:47 40.5511 -82.2992 209° Southwest 210 242 8,000  Level Indianapolis Center
Fri 14:36:19 40.5194 -82.3253 212° Southwest 211 243 8,000  Level Indianapolis Center
Fri 14:36:49 40.4992 -82.3378 205° Southwest 211 243 8,000  Level Indianapolis Center
Fri 14:37:20 40.4708 -82.3667 218° Southwest 211 243 8,000  Level Indianapolis Center
Fri 14:37:50 40.4478 -82.3953 223° Southwest 208 239 8,000  Level Indianapolis Center
Fri 14:38:20 40.4300 -82.4197 226° Southwest 208 239 8,000  Level Indianapolis Center
Fri 14:38:52 40.4053 -82.4489 222° Southwest 209 241 8,000  Level Indianapolis Center
Fri 14:39:21 40.3822 -82.4775 223° Southwest 211 243 8,000 -194 Level Indianapolis Center
Fri 14:39:54 40.3625 -82.5042 226° Southwest 214 246 7,800 -590 Descending Indianapolis Center
Fri 14:40:22 40.3414 -82.5306 224° Southwest 212 244 7,400 -871 Descending Indianapolis Center
Fri 14:40:56 40.3228 -82.5514 220° Southwest 191 220 6,900 -1,082 Descending Indianapolis Center
Fri 14:41:23 40.3050 -82.5758 226° Southwest 172 198 6,300 -1,082 Descending Indianapolis Center
Fri 14:41:57 40.2883 -82.5947 221° Southwest 173 199 5,800 -1,200 Descending Indianapolis Center
Fri 14:42:23 40.2711 -82.6158 223° Southwest 162 186 5,100 -1,452 Descending Indianapolis Center
Fri 14:42:59 40.2533 -82.6383 224° Southwest 172 198 4,300 -1,377 Descending Indianapolis Center
Fri 14:43:24 40.2367 -82.6611 226° Southwest 178 205 3,700 -1,258 Descending Indianapolis Center
Fri 14:44:01 40.2158 -82.6861 223° Southwest 176 203 3,000 -689 Descending Indianapolis Center
Fri 14:44:25 40.2025 -82.7039 226° Southwest 172 198 3,000  Level Indianapolis Center
Fri 14:45:03 40.1808 -82.7281 220° Southwest 172 198 3,000  Level Indianapolis Center
Fri 14:45:26 40.1661 -82.7489 227° Southwest 175 201 3,000 -97 Level Indianapolis Center
Fri 14:46:05 40.1458 -82.7772 227° Southwest 178 205 2,900  Descending Indianapolis Center
Fri 14:46:26 40.1369 -82.8083 250° West 189 217 3,000 97 Climbing Indianapolis Center
Fri 14:47:07 40.1239 -82.8400 242° Southwest 183 211 3,000  Level Indianapolis Center
Fri 14:47:27 40.1142 -82.8683 246° West 183 211 3,000 -98 Level Indianapolis Center
Fri 14:48:08 40.1019 -82.9014 244° Southwest 185 213 2,900 -98 Descending Indianapolis Center
Fri 14:48:28 40.0914 -82.9286 243° Southwest 183 211 2,900 -387 Level Indianapolis Center
Fri 14:49:10 40.0817 -82.9603 248° West 182 209 2,500 -590 Descending Indianapolis Center
Fri 14:49:29 40.0814 -82.9819 269° West 134 154 2,300 -774 Descending Indianapolis Center
Fri 14:50:12 40.0797 -83.0144 266° West 143 165 1,700 -787 Descending Indianapolis Center
Fri 14:50:30 40.0781 -83.0306 262° West 121 139 1,500 -677 Descending Indianapolis Center
Fri 14:51:14 40.0775 -83.0558 268° West 125 144 1,000 -682 Descending Indianapolis Center
Fri 14:53:00 40.0667 -83.0667 246° West  Level FlightAware Approximate

Login

Don't have an account? Register now (free) for customized features, flight alerts, and more!